עמוד ראשי
METAR-TAF:

METAR-TAF

שדות תעופה :

Santa Ana del Yacuma, בוליביה

קו רוחב: 13-46S, קו אורך: 065-26W, גובה: 144מטר

תצפית מזג אוויר נוכחית

הדו"ח נערך לפני 2 שעות ו 50דקות, בשעה 23:00 UTC
רוח רגועה
טמפרטורת 24 צלסיוס
לחות 65%
לחץ 1013 hPa
ראות 10 קילומטר או יותר

METAR: SLSA 202300Z 00000KT 9999 NSC 24/17 Q1013

זמן: 21:50 (01:50 UTC)


TAF: חסר

תצפיות ותחזיות מזג אוויר לגבי יותר מ- 4,000 שדות תעופה ברחבי העולם. דוחות METAR ו- TAF.

התחנות הזמינות מסומנות בנקודות צהובות ואדומות על גבי המפה.

העבר את העכבר לנקודה הצבעונית על מנת לראות את שם התחנה.

לאחר מכן, לחץ כדי לראות את תוכן ואת תחזיות מזג האוויר.

כדי לשנות את המפה: לחץ על הכפתורים הירוקים עם הפלוס השחור כדי להתקרב; על הכפתור הירוק עם המקף כדי להתרחק; או בחיצים הירוקים למפות סמוכות.


METAR-TAF: